sensor_id;sensor_type;location;lat;lon;timestamp;pressure;altitude;pressure_sealevel;temperature;humidity
24752;BME280;27246;52.376;4.628;2023-10-13T00:03:24;100870.47;;;16.71;100.00
24752;BME280;27246;52.376;4.628;2023-10-13T00:08:32;100866.84;;;16.71;100.00
24752;BME280;27246;52.376;4.628;2023-10-13T00:13:34;100865.97;;;16.70;100.00
24752;BME280;27246;52.376;4.628;2023-10-13T00:18:51;100861.50;;;16.69;100.00
24752;BME280;27246;52.376;4.628;2023-10-13T00:24:00;100842.91;;;16.70;100.00
24752;BME280;27246;52.376;4.628;2023-10-13T00:29:03;100851.69;;;16.67;100.00
24752;BME280;27246;52.376;4.628;2023-10-13T00:34:09;100840.34;;;16.68;100.00
24752;BME280;27246;52.376;4.628;2023-10-13T00:39:21;100836.72;;;16.68;100.00
24752;BME280;27246;52.376;4.628;2023-10-13T00:44:26;100819.22;;;16.67;100.00
24752;BME280;27246;52.376;4.628;2023-10-13T00:49:39;100805.53;;;16.66;100.00
24752;BME280;27246;52.376;4.628;2023-10-13T00:54:42;100808.94;;;16.68;100.00
24752;BME280;27246;52.376;4.628;2023-10-13T00:59:47;100804.22;;;16.68;100.00
24752;BME280;27246;52.376;4.628;2023-10-13T01:04:50;100803.19;;;16.69;100.00
24752;BME280;27246;52.376;4.628;2023-10-13T01:09:54;100776.91;;;16.65;100.00
24752;BME280;27246;52.376;4.628;2023-10-13T01:14:57;100776.47;;;16.68;100.00
24752;BME280;27246;52.376;4.628;2023-10-13T01:19:59;100772.63;;;16.69;100.00
24752;BME280;27246;52.376;4.628;2023-10-13T01:25:01;100763.66;;;16.67;100.00
24752;BME280;27246;52.376;4.628;2023-10-13T01:30:08;100761.94;;;16.66;100.00
24752;BME280;27246;52.376;4.628;2023-10-13T01:35:24;100763.25;;;16.64;100.00
24752;BME280;27246;52.376;4.628;2023-10-13T01:40:36;100755.56;;;16.66;100.00
24752;BME280;27246;52.376;4.628;2023-10-13T01:45:38;100744.66;;;16.64;100.00
24752;BME280;27246;52.376;4.628;2023-10-13T01:50:48;100735.28;;;16.65;100.00
24752;BME280;27246;52.376;4.628;2023-10-13T01:55:58;100735.06;;;16.60;100.00
24752;BME280;27246;52.376;4.628;2023-10-13T02:01:00;100725.03;;;16.59;100.00
24752;BME280;27246;52.376;4.628;2023-10-13T02:06:01;100711.38;;;16.57;100.00
24752;BME280;27246;52.376;4.628;2023-10-13T02:11:05;100718.03;;;16.56;100.00
24752;BME280;27246;52.376;4.628;2023-10-13T02:16:08;100711.59;;;16.56;100.00
24752;BME280;27246;52.376;4.628;2023-10-13T02:21:11;100702.22;;;16.57;100.00
24752;BME280;27246;52.376;4.628;2023-10-13T02:26:15;100682.97;;;16.55;100.00
24752;BME280;27246;52.376;4.628;2023-10-13T02:31:29;100675.13;;;16.52;100.00
24752;BME280;27246;52.376;4.628;2023-10-13T02:36:30;100670.19;;;16.54;100.00
24752;BME280;27246;52.376;4.628;2023-10-13T02:41:48;100648.41;;;16.51;100.00
24752;BME280;27246;52.376;4.628;2023-10-13T02:46:50;100643.94;;;16.50;100.00
24752;BME280;27246;52.376;4.628;2023-10-13T02:51:53;100630.06;;;16.50;100.00
24752;BME280;27246;52.376;4.628;2023-10-13T02:56:57;100621.09;;;16.48;100.00
24752;BME280;27246;52.376;4.628;2023-10-13T03:02:01;100608.75;;;16.44;100.00
24752;BME280;27246;52.376;4.628;2023-10-13T03:07:19;100595.50;;;16.46;100.00
24752;BME280;27246;52.376;4.628;2023-10-13T03:12:25;100566.25;;;16.44;100.00
24752;BME280;27246;52.376;4.628;2023-10-13T03:17:28;100549.63;;;16.37;100.00
24752;BME280;27246;52.376;4.628;2023-10-13T03:22:36;100533.66;;;16.32;100.00
24752;BME280;27246;52.376;4.628;2023-10-13T03:27:38;100520.22;;;16.29;100.00
24752;BME280;27246;52.376;4.628;2023-10-13T03:33:04;100525.16;;;16.27;100.00
24752;BME280;27246;52.376;4.628;2023-10-13T03:38:13;100510.50;;;16.20;100.00
24752;BME280;27246;52.376;4.628;2023-10-13T03:43:20;100496.78;;;16.25;100.00
24752;BME280;27246;52.376;4.628;2023-10-13T03:48:27;100482.50;;;16.22;100.00
24752;BME280;27246;52.376;4.628;2023-10-13T03:53:30;100466.72;;;16.22;100.00
24752;BME280;27246;52.376;4.628;2023-10-13T03:58:36;100463.94;;;16.22;100.00
24752;BME280;27246;52.376;4.628;2023-10-13T04:03:39;100447.09;;;16.17;100.00
24752;BME280;27246;52.376;4.628;2023-10-13T04:08:58;100436.06;;;16.10;100.00
24752;BME280;27246;52.376;4.628;2023-10-13T04:14:19;100422.19;;;16.10;100.00
24752;BME280;27246;52.376;4.628;2023-10-13T04:19:46;100417.50;;;16.11;100.00
24752;BME280;27246;52.376;4.628;2023-10-13T04:25:06;100401.13;;;16.03;100.00
24752;BME280;27246;52.376;4.628;2023-10-13T04:30:28;100386.63;;;16.00;100.00
24752;BME280;27246;52.376;4.628;2023-10-13T04:35:40;100384.69;;;16.01;100.00
24752;BME280;27246;52.376;4.628;2023-10-13T04:40:49;100391.56;;;15.98;100.00
24752;BME280;27246;52.376;4.628;2023-10-13T04:46:11;100356.81;;;15.96;100.00
24752;BME280;27246;52.376;4.628;2023-10-13T04:51:37;100357.19;;;15.99;100.00
24752;BME280;27246;52.376;4.628;2023-10-13T04:56:57;100341.75;;;16.10;100.00
24752;BME280;27246;52.376;4.628;2023-10-13T05:02:21;100340.44;;;16.13;100.00
24752;BME280;27246;52.376;4.628;2023-10-13T05:07:38;100345.06;;;16.19;100.00
24752;BME280;27246;52.376;4.628;2023-10-13T05:12:58;100344.94;;;16.32;100.00
24752;BME280;27246;52.376;4.628;2023-10-13T05:18:18;100338.19;;;16.47;100.00
24752;BME280;27246;52.376;4.628;2023-10-13T05:23:39;100345.72;;;16.58;100.00
24752;BME280;27246;52.376;4.628;2023-10-13T05:28:59;100330.16;;;16.57;100.00
24752;BME280;27246;52.376;4.628;2023-10-13T05:34:29;100323.78;;;16.56;100.00
24752;BME280;27246;52.376;4.628;2023-10-13T05:39:50;100306.25;;;16.56;100.00
24752;BME280;27246;52.376;4.628;2023-10-13T05:45:10;100298.78;;;16.56;100.00
24752;BME280;27246;52.376;4.628;2023-10-13T05:50:18;100292.63;;;16.54;100.00
24752;BME280;27246;52.376;4.628;2023-10-13T05:55:25;100284.50;;;16.53;100.00
24752;BME280;27246;52.376;4.628;2023-10-13T06:00:46;100274.34;;;16.47;100.00
24752;BME280;27246;52.376;4.628;2023-10-13T06:06:08;100277.41;;;16.38;100.00
24752;BME280;27246;52.376;4.628;2023-10-13T06:11:28;100272.31;;;16.35;100.00
24752;BME280;27246;52.376;4.628;2023-10-13T06:16:48;100267.69;;;16.29;100.00
24752;BME280;27246;52.376;4.628;2023-10-13T06:22:09;100268.78;;;16.28;100.00
24752;BME280;27246;52.376;4.628;2023-10-13T06:27:31;100268.16;;;16.26;100.00
24752;BME280;27246;52.376;4.628;2023-10-13T06:32:52;100261.38;;;16.22;100.00
24752;BME280;27246;52.376;4.628;2023-10-13T06:37:56;100256.75;;;16.16;100.00
24752;BME280;27246;52.376;4.628;2023-10-13T06:43:02;100244.56;;;16.17;100.00
24752;BME280;27246;52.376;4.628;2023-10-13T06:48:15;100229.47;;;16.13;100.00
24752;BME280;27246;52.376;4.628;2023-10-13T06:53:19;100232.00;;;16.14;100.00
24752;BME280;27246;52.376;4.628;2023-10-13T06:58:20;100217.75;;;16.11;100.00
24752;BME280;27246;52.376;4.628;2023-10-13T07:03:26;100223.06;;;16.12;100.00
24752;BME280;27246;52.376;4.628;2023-10-13T07:08:28;100201.09;;;16.11;100.00
24752;BME280;27246;52.376;4.628;2023-10-13T07:13:33;100186.31;;;16.17;100.00
24752;BME280;27246;52.376;4.628;2023-10-13T07:18:41;100174.28;;;16.23;100.00
24752;BME280;27246;52.376;4.628;2023-10-13T07:23:57;100160.31;;;16.30;100.00
24752;BME280;27246;52.376;4.628;2023-10-13T07:29:13;100154.22;;;16.39;100.00
24752;BME280;27246;52.376;4.628;2023-10-13T07:34:17;100154.75;;;16.48;100.00
24752;BME280;27246;52.376;4.628;2023-10-13T07:39:32;100155.25;;;16.57;100.00
24752;BME280;27246;52.376;4.628;2023-10-13T07:44:43;100157.72;;;16.65;100.00
24752;BME280;27246;52.376;4.628;2023-10-13T07:49:48;100154.59;;;16.73;100.00
24752;BME280;27246;52.376;4.628;2023-10-13T07:54:52;100162.00;;;16.79;100.00
24752;BME280;27246;52.376;4.628;2023-10-13T08:00:14;100145.50;;;16.85;100.00
24752;BME280;27246;52.376;4.628;2023-10-13T08:05:28;100138.41;;;16.89;100.00
24752;BME280;27246;52.376;4.628;2023-10-13T08:10:50;100117.38;;;16.93;100.00
24752;BME280;27246;52.376;4.628;2023-10-13T08:15:57;100126.94;;;16.97;100.00
24752;BME280;27246;52.376;4.628;2023-10-13T08:21:07;100111.22;;;17.03;100.00
24752;BME280;27246;52.376;4.628;2023-10-13T08:26:19;100113.91;;;17.09;100.00
24752;BME280;27246;52.376;4.628;2023-10-13T08:31:49;100101.09;;;17.20;100.00
24752;BME280;27246;52.376;4.628;2023-10-13T08:37:13;100102.09;;;17.26;100.00
24752;BME280;27246;52.376;4.628;2023-10-13T08:42:38;100093.00;;;17.30;100.00
24752;BME280;27246;52.376;4.628;2023-10-13T08:47:43;100096.75;;;17.36;100.00
24752;BME280;27246;52.376;4.628;2023-10-13T08:52:55;100091.34;;;17.41;100.00
24752;BME280;27246;52.376;4.628;2023-10-13T08:57:58;100082.63;;;17.49;100.00
24752;BME280;27246;52.376;4.628;2023-10-13T09:03:06;100077.41;;;17.53;100.00
24752;BME280;27246;52.376;4.628;2023-10-13T09:08:29;100060.63;;;17.59;100.00
24752;BME280;27246;52.376;4.628;2023-10-13T09:13:37;100044.63;;;17.67;100.00
24752;BME280;27246;52.376;4.628;2023-10-13T09:18:48;100042.81;;;17.72;100.00
24752;BME280;27246;52.376;4.628;2023-10-13T09:23:52;100031.53;;;17.79;100.00
24752;BME280;27246;52.376;4.628;2023-10-13T09:29:18;100025.72;;;17.92;100.00
24752;BME280;27246;52.376;4.628;2023-10-13T09:34:22;100035.28;;;17.96;100.00
24752;BME280;27246;52.376;4.628;2023-10-13T09:39:32;100022.78;;;17.99;100.00
24752;BME280;27246;52.376;4.628;2023-10-13T09:44:55;100013.38;;;18.00;100.00
24752;BME280;27246;52.376;4.628;2023-10-13T09:50:01;100024.00;;;18.03;100.00
24752;BME280;27246;52.376;4.628;2023-10-13T09:55:19;100024.94;;;18.09;100.00
24752;BME280;27246;52.376;4.628;2023-10-13T10:00:23;100018.03;;;18.11;100.00
24752;BME280;27246;52.376;4.628;2023-10-13T10:05:55;100010.97;;;18.21;100.00
24752;BME280;27246;52.376;4.628;2023-10-13T10:11:23;100012.00;;;18.31;100.00
24752;BME280;27246;52.376;4.628;2023-10-13T10:16:53;100000.56;;;18.45;100.00
24752;BME280;27246;52.376;4.628;2023-10-13T10:22:05;100006.47;;;18.48;100.00
24752;BME280;27246;52.376;4.628;2023-10-13T10:27:31;99997.38;;;18.53;100.00
24752;BME280;27246;52.376;4.628;2023-10-13T10:32:37;100004.78;;;18.64;100.00
24752;BME280;27246;52.376;4.628;2023-10-13T10:37:42;99998.16;;;18.82;100.00
24752;BME280;27246;52.376;4.628;2023-10-13T10:42:51;99986.72;;;19.17;100.00
24752;BME280;27246;52.376;4.628;2023-10-13T10:47:54;99975.75;;;19.11;100.00
24752;BME280;27246;52.376;4.628;2023-10-13T10:53:05;99971.88;;;19.12;98.23
24752;BME280;27246;52.376;4.628;2023-10-13T10:58:10;99970.50;;;19.14;97.17
24752;BME280;27246;52.376;4.628;2023-10-13T11:03:30;99965.44;;;19.11;95.99
24752;BME280;27246;52.376;4.628;2023-10-13T11:08:32;99957.09;;;19.11;95.66
24752;BME280;27246;52.376;4.628;2023-10-13T11:13:41;99964.66;;;19.16;95.30
24752;BME280;27246;52.376;4.628;2023-10-13T11:19:03;99961.53;;;19.12;95.53
24752;BME280;27246;52.376;4.628;2023-10-13T11:24:08;99943.22;;;19.16;95.92
24752;BME280;27246;52.376;4.628;2023-10-13T11:29:10;99948.47;;;19.13;96.06
24752;BME280;27246;52.376;4.628;2023-10-13T11:34:12;99946.53;;;19.13;95.93
24752;BME280;27246;52.376;4.628;2023-10-13T11:39:18;99939.25;;;19.12;96.39
24752;BME280;27246;52.376;4.628;2023-10-13T11:44:34;99951.72;;;19.27;92.53
24752;BME280;27246;52.376;4.628;2023-10-13T11:49:44;99945.63;;;19.30;92.31
24752;BME280;27246;52.376;4.628;2023-10-13T11:54:46;99939.81;;;19.31;91.16
24752;BME280;27246;52.376;4.628;2023-10-13T11:59:49;99938.69;;;19.32;92.82
24752;BME280;27246;52.376;4.628;2023-10-13T12:05:20;99945.50;;;19.19;97.41
24752;BME280;27246;52.376;4.628;2023-10-13T12:10:29;99948.28;;;19.19;96.99
24752;BME280;27246;52.376;4.628;2023-10-13T12:15:52;99942.63;;;19.14;98.58
24752;BME280;27246;52.376;4.628;2023-10-13T12:20:58;99917.16;;;19.06;100.00
24752;BME280;27246;52.376;4.628;2023-10-13T12:26:02;99934.56;;;18.96;100.00
24752;BME280;27246;52.376;4.628;2023-10-13T12:31:08;99915.50;;;18.88;100.00
24752;BME280;27246;52.376;4.628;2023-10-13T12:36:13;99897.59;;;18.84;100.00
24752;BME280;27246;52.376;4.628;2023-10-13T12:41:20;99906.06;;;18.89;100.00
24752;BME280;27246;52.376;4.628;2023-10-13T12:46:40;99907.22;;;18.93;100.00
24752;BME280;27246;52.376;4.628;2023-10-13T12:52:02;99905.66;;;19.02;100.00
24752;BME280;27246;52.376;4.628;2023-10-13T12:57:04;99894.84;;;19.06;100.00
24752;BME280;27246;52.376;4.628;2023-10-13T13:02:11;99899.25;;;19.02;100.00
24752;BME280;27246;52.376;4.628;2023-10-13T13:07:17;99881.88;;;18.94;100.00
24752;BME280;27246;52.376;4.628;2023-10-13T13:12:19;99891.59;;;18.92;100.00
24752;BME280;27246;52.376;4.628;2023-10-13T13:17:21;99895.56;;;18.96;100.00
24752;BME280;27246;52.376;4.628;2023-10-13T13:22:23;99908.91;;;18.94;100.00
24752;BME280;27246;52.376;4.628;2023-10-13T13:27:26;99902.16;;;18.90;100.00
24752;BME280;27246;52.376;4.628;2023-10-13T13:32:29;99892.56;;;18.81;100.00
24752;BME280;27246;52.376;4.628;2023-10-13T13:37:31;99898.44;;;18.67;100.00
24752;BME280;27246;52.376;4.628;2023-10-13T13:42:33;99881.94;;;18.61;100.00
24752;BME280;27246;52.376;4.628;2023-10-13T13:47:38;99879.88;;;18.56;100.00
24752;BME280;27246;52.376;4.628;2023-10-13T13:52:40;99886.72;;;18.65;100.00
24752;BME280;27246;52.376;4.628;2023-10-13T13:57:47;99864.78;;;18.69;100.00
24752;BME280;27246;52.376;4.628;2023-10-13T14:02:52;99893.56;;;18.74;100.00
24752;BME280;27246;52.376;4.628;2023-10-13T14:07:54;99885.19;;;18.74;100.00
24752;BME280;27246;52.376;4.628;2023-10-13T14:13:01;99896.44;;;18.79;100.00
24752;BME280;27246;52.376;4.628;2023-10-13T14:18:14;99914.72;;;18.75;100.00
24752;BME280;27246;52.376;4.628;2023-10-13T14:23:19;99928.69;;;18.58;100.00
24752;BME280;27246;52.376;4.628;2023-10-13T14:28:24;99903.47;;;18.48;100.00
24752;BME280;27246;52.376;4.628;2023-10-13T14:33:34;99909.44;;;18.40;100.00
24752;BME280;27246;52.376;4.628;2023-10-13T14:38:36;99919.56;;;18.29;100.00
24752;BME280;27246;52.376;4.628;2023-10-13T14:43:37;99921.91;;;18.21;100.00
24752;BME280;27246;52.376;4.628;2023-10-13T14:48:39;99909.25;;;18.13;100.00
24752;BME280;27246;52.376;4.628;2023-10-13T14:53:41;99912.94;;;18.02;100.00
24752;BME280;27246;52.376;4.628;2023-10-13T14:58:45;99883.00;;;17.92;100.00
24752;BME280;27246;52.376;4.628;2023-10-13T15:03:50;99893.56;;;17.90;100.00
24752;BME280;27246;52.376;4.628;2023-10-13T15:08:52;99885.94;;;17.85;100.00
24752;BME280;27246;52.376;4.628;2023-10-13T15:13:58;99865.00;;;17.83;100.00
24752;BME280;27246;52.376;4.628;2023-10-13T15:19:01;99856.31;;;17.79;100.00
24752;BME280;27246;52.376;4.628;2023-10-13T15:24:05;99855.41;;;17.73;100.00
24752;BME280;27246;52.376;4.628;2023-10-13T15:29:19;99838.09;;;17.71;100.00
24752;BME280;27246;52.376;4.628;2023-10-13T15:34:39;99837.94;;;17.78;100.00
24752;BME280;27246;52.376;4.628;2023-10-13T15:39:41;99819.53;;;17.89;100.00
24752;BME280;27246;52.376;4.628;2023-10-13T15:44:43;99809.81;;;17.91;100.00
24752;BME280;27246;52.376;4.628;2023-10-13T15:49:45;99804.34;;;17.96;100.00
24752;BME280;27246;52.376;4.628;2023-10-13T15:54:47;99804.34;;;17.96;100.00
24752;BME280;27246;52.376;4.628;2023-10-13T15:59:49;99807.47;;;18.00;100.00
24752;BME280;27246;52.376;4.628;2023-10-13T16:04:50;99793.81;;;17.98;100.00
24752;BME280;27246;52.376;4.628;2023-10-13T16:09:56;99790.50;;;18.02;100.00
24752;BME280;27246;52.376;4.628;2023-10-13T16:15:01;99784.94;;;18.02;100.00
24752;BME280;27246;52.376;4.628;2023-10-13T16:20:03;99773.56;;;18.03;100.00
24752;BME280;27246;52.376;4.628;2023-10-13T16:25:15;99779.91;;;17.98;100.00
24752;BME280;27246;52.376;4.628;2023-10-13T16:30:20;99787.66;;;17.96;100.00
24752;BME280;27246;52.376;4.628;2023-10-13T16:35:23;99785.97;;;17.95;100.00
24752;BME280;27246;52.376;4.628;2023-10-13T16:40:24;99783.75;;;17.97;100.00
24752;BME280;27246;52.376;4.628;2023-10-13T16:45:26;99747.88;;;17.96;100.00
24752;BME280;27246;52.376;4.628;2023-10-13T16:50:33;99775.75;;;18.01;100.00
24752;BME280;27246;52.376;4.628;2023-10-13T16:55:39;99771.03;;;18.02;100.00
24752;BME280;27246;52.376;4.628;2023-10-13T17:00:43;99769.94;;;18.03;100.00
24752;BME280;27246;52.376;4.628;2023-10-13T17:05:47;99776.00;;;17.99;100.00
24752;BME280;27246;52.376;4.628;2023-10-13T17:10:50;99769.94;;;18.03;100.00
24752;BME280;27246;52.376;4.628;2023-10-13T17:15:52;99773.81;;;18.02;100.00
24752;BME280;27246;52.376;4.628;2023-10-13T17:20:54;99767.41;;;18.01;100.00
24752;BME280;27246;52.376;4.628;2023-10-13T17:25:57;99757.72;;;18.04;100.00
24752;BME280;27246;52.376;4.628;2023-10-13T17:30:59;99764.97;;;18.05;100.00
24752;BME280;27246;52.376;4.628;2023-10-13T17:36:00;99775.63;;;18.08;100.00
24752;BME280;27246;52.376;4.628;2023-10-13T17:41:05;99774.31;;;18.15;100.00
24752;BME280;27246;52.376;4.628;2023-10-13T17:46:11;99762.59;;;18.13;100.00
24752;BME280;27246;52.376;4.628;2023-10-13T17:51:13;99764.03;;;18.16;100.00
24752;BME280;27246;52.376;4.628;2023-10-13T17:56:15;99737.88;;;18.17;100.00
24752;BME280;27246;52.376;4.628;2023-10-13T18:01:21;99730.66;;;18.16;100.00
24752;BME280;27246;52.376;4.628;2023-10-13T18:06:23;99725.34;;;18.14;100.00
24752;BME280;27246;52.376;4.628;2023-10-13T18:11:29;99708.63;;;18.14;100.00
24752;BME280;27246;52.376;4.628;2023-10-13T18:16:32;99712.50;;;18.13;100.00
24752;BME280;27246;52.376;4.628;2023-10-13T18:21:37;99713.09;;;18.15;100.00
24752;BME280;27246;52.376;4.628;2023-10-13T18:26:39;99717.81;;;18.15;100.00
24752;BME280;27246;52.376;4.628;2023-10-13T18:31:40;99720.03;;;18.13;100.00
24752;BME280;27246;52.376;4.628;2023-10-13T18:36:42;99701.06;;;18.10;100.00
24752;BME280;27246;52.376;4.628;2023-10-13T18:41:48;99690.69;;;18.05;100.00
24752;BME280;27246;52.376;4.628;2023-10-13T18:46:50;99707.63;;;18.04;100.00
24752;BME280;27246;52.376;4.628;2023-10-13T18:51:55;99697.13;;;18.06;100.00
24752;BME280;27246;52.376;4.628;2023-10-13T18:56:57;99696.84;;;18.07;100.00
24752;BME280;27246;52.376;4.628;2023-10-13T19:01:59;99705.19;;;18.07;100.00
24752;BME280;27246;52.376;4.628;2023-10-13T19:07:03;99695.41;;;18.05;100.00
24752;BME280;27246;52.376;4.628;2023-10-13T19:12:06;99702.16;;;18.09;100.00
24752;BME280;27246;52.376;4.628;2023-10-13T19:17:09;99704.34;;;18.07;100.00
24752;BME280;27246;52.376;4.628;2023-10-13T19:22:11;99688.16;;;18.04;100.00
24752;BME280;27246;52.376;4.628;2023-10-13T19:27:14;99687.66;;;18.07;100.00
24752;BME280;27246;52.376;4.628;2023-10-13T19:32:16;99668.97;;;18.02;100.00
24752;BME280;27246;52.376;4.628;2023-10-13T19:37:18;99663.06;;;17.98;100.00
24752;BME280;27246;52.376;4.628;2023-10-13T19:42:19;99643.06;;;18.02;100.00
24752;BME280;27246;52.376;4.628;2023-10-13T19:47:22;99655.88;;;18.03;100.00
24752;BME280;27246;52.376;4.628;2023-10-13T19:52:26;99640.22;;;17.96;100.00
24752;BME280;27246;52.376;4.628;2023-10-13T19:57:28;99631.88;;;17.96;100.00
24752;BME280;27246;52.376;4.628;2023-10-13T20:02:34;99637.69;;;17.95;100.00
24752;BME280;27246;52.376;4.628;2023-10-13T20:07:36;99636.91;;;17.99;100.00
24752;BME280;27246;52.376;4.628;2023-10-13T20:12:42;99631.19;;;17.89;100.00
24752;BME280;27246;52.376;4.628;2023-10-13T20:17:46;99634.84;;;17.90;100.00
24752;BME280;27246;52.376;4.628;2023-10-13T20:22:48;99604.50;;;17.88;100.00
24752;BME280;27246;52.376;4.628;2023-10-13T20:27:50;99606.13;;;17.84;100.00
24752;BME280;27246;52.376;4.628;2023-10-13T20:32:56;99586.38;;;17.86;100.00
24752;BME280;27246;52.376;4.628;2023-10-13T20:37:58;99581.28;;;17.83;100.00
24752;BME280;27246;52.376;4.628;2023-10-13T20:43:00;99578.75;;;17.81;100.00
24752;BME280;27246;52.376;4.628;2023-10-13T20:48:03;99661.75;;;17.84;100.00
24752;BME280;27246;52.376;4.628;2023-10-13T20:53:05;99698.97;;;17.49;100.00
24752;BME280;27246;52.376;4.628;2023-10-13T20:58:08;99704.53;;;17.49;100.00
24752;BME280;27246;52.376;4.628;2023-10-13T21:03:10;99724.09;;;17.88;100.00
24752;BME280;27246;52.376;4.628;2023-10-13T21:08:12;99751.34;;;17.86;100.00
24752;BME280;27246;52.376;4.628;2023-10-13T21:13:15;99780.00;;;17.41;100.00
24752;BME280;27246;52.376;4.628;2023-10-13T21:18:17;99791.13;;;17.41;100.00
24752;BME280;27246;52.376;4.628;2023-10-13T21:23:19;99778.75;;;17.20;100.00
24752;BME280;27246;52.376;4.628;2023-10-13T21:28:22;99785.28;;;16.97;100.00
24752;BME280;27246;52.376;4.628;2023-10-13T21:33:28;99787.19;;;16.96;100.00
24752;BME280;27246;52.376;4.628;2023-10-13T21:38:31;99791.44;;;16.87;100.00
24752;BME280;27246;52.376;4.628;2023-10-13T21:43:34;99788.69;;;16.64;100.00
24752;BME280;27246;52.376;4.628;2023-10-13T21:48:38;99791.56;;;16.80;100.00
24752;BME280;27246;52.376;4.628;2023-10-13T21:53:40;99795.06;;;16.64;100.00
24752;BME280;27246;52.376;4.628;2023-10-13T21:58:42;99809.25;;;16.51;100.00
24752;BME280;27246;52.376;4.628;2023-10-13T22:03:44;99807.66;;;16.43;100.00
24752;BME280;27246;52.376;4.628;2023-10-13T22:08:49;99827.22;;;16.36;100.00
24752;BME280;27246;52.376;4.628;2023-10-13T22:13:52;99846.16;;;16.39;100.00
24752;BME280;27246;52.376;4.628;2023-10-13T22:18:53;99857.16;;;16.34;100.00
24752;BME280;27246;52.376;4.628;2023-10-13T22:23:58;99878.25;;;16.35;100.00
24752;BME280;27246;52.376;4.628;2023-10-13T22:29:02;99883.94;;;16.52;100.00
24752;BME280;27246;52.376;4.628;2023-10-13T22:34:08;99905.16;;;16.70;100.00
24752;BME280;27246;52.376;4.628;2023-10-13T22:39:10;99889.72;;;16.39;100.00
24752;BME280;27246;52.376;4.628;2023-10-13T22:44:16;99900.72;;;16.57;100.00
24752;BME280;27246;52.376;4.628;2023-10-13T22:49:20;99917.44;;;16.15;100.00
24752;BME280;27246;52.376;4.628;2023-10-13T22:54:23;99948.63;;;16.53;100.00
24752;BME280;27246;52.376;4.628;2023-10-13T22:59:31;99954.75;;;16.31;100.00
24752;BME280;27246;52.376;4.628;2023-10-13T23:04:32;99956.16;;;16.10;98.68
24752;BME280;27246;52.376;4.628;2023-10-13T23:09:34;99953.66;;;16.32;100.00
24752;BME280;27246;52.376;4.628;2023-10-13T23:14:37;99957.13;;;16.16;98.92
24752;BME280;27246;52.376;4.628;2023-10-13T23:19:40;99969.97;;;16.40;99.84
24752;BME280;27246;52.376;4.628;2023-10-13T23:24:42;99989.94;;;15.89;95.33
24752;BME280;27246;52.376;4.628;2023-10-13T23:29:44;99997.75;;;15.62;92.72
24752;BME280;27246;52.376;4.628;2023-10-13T23:34:46;100007.00;;;15.74;92.30
24752;BME280;27246;52.376;4.628;2023-10-13T23:39:47;100012.31;;;15.75;91.24
24752;BME280;27246;52.376;4.628;2023-10-13T23:44:50;100014.38;;;15.62;91.17
24752;BME280;27246;52.376;4.628;2023-10-13T23:49:52;100036.88;;;15.53;90.28
24752;BME280;27246;52.376;4.628;2023-10-13T23:54:54;100034.94;;;15.72;93.88
24752;BME280;27246;52.376;4.628;2023-10-13T23:59:57;100047.63;;;15.62;94.63
